Chauvin, Canada
Current Conditions -  °F | °C
As of 12:00 PM on Saturday 20 Dec 2014 (Local Time) from CYLL Reporting Station
Broken Clouds Broken Clouds  
Wind Chill: 19°   Ceiling: 26000
Heat Index: 19°   Visibility: 12mi
Dew Point: 18°   Wind: 0mph
Humidity: 93%   Direction: NA
Pressure: 29.66"   Gusts: NA
Location:  52.68°N, 110.13°W
Report Text: CYLL 201900Z 00000KT 12SM FEW160 BKN260 M07/M08 A2966 RMK AC2CI4 SLP088
Loading
Personal Weather Stations






























Interactive Weather Map New forecast layout! Learn more

10-Day Weather Forecast

Advertisements
Track Severe Weather on mobile